Long Point, Texas
Current Conditions -  °F | °C
As of 12:53 AM on Sunday 26 Oct 2014 (Local Time) from KSGR Reporting Station
NA  
Wind Chill: 60°   Ceiling: NA
Heat Index: 60°   Visibility: 7mi
Dew Point: 59°   Wind: 0mph
Humidity: 96%   Direction: NA
Pressure: 30.08"   Gusts: NA
Location:  29.3854°N, 95.8138°W
Report Text: KSGR 260553Z AUTO 00000KT 7SM 16/15 A3008 RMK AO2 SLP187 T01560150 10239 20156 402940139 58011 $
Loading
Personal Weather Stations






























Interactive Weather Map
Tropical Storm Tracking
New forecast layout! Learn more

10-Day Weather Forecast

Advertisements
Track Severe Weather on mobile